createdAt,value
2023-04-14T00:00:53.466Z,88.98
2023-04-14T00:03:22.727Z,88.75
2023-04-14T00:05:51.718Z,88.78
2023-04-14T00:08:21.415Z,88.85
2023-04-14T00:10:49.688Z,88.63
2023-04-14T00:13:17.634Z,88.30
2023-04-14T00:15:48.982Z,88.51
2023-04-14T00:18:17.027Z,88.36
2023-04-14T00:20:44.989Z,88.14
2023-04-14T00:23:16.382Z,88.18
2023-04-14T00:25:45.078Z,87.87
2023-04-14T00:28:13.076Z,87.78
2023-04-14T00:30:46.759Z,87.63
2023-04-14T00:33:16.308Z,87.63
2023-04-14T00:35:44.277Z,87.71
2023-04-14T00:38:12.430Z,87.57
2023-04-14T00:40:40.495Z,87.26
2023-04-14T00:43:08.372Z,86.94
2023-04-14T00:45:41.287Z,87.25
2023-04-14T00:48:10.914Z,87.25
2023-04-14T00:50:39.426Z,86.85
2023-04-14T00:53:07.630Z,86.72
2023-04-14T00:55:36.504Z,86.44
2023-04-14T00:58:04.484Z,86.82
2023-04-14T01:00:33.979Z,86.53
2023-04-14T01:03:03.761Z,86.55
2023-04-14T01:05:33.969Z,86.25
2023-04-14T01:08:03.602Z,86.29
2023-04-14T01:10:36.231Z,86.48
2023-04-14T01:13:27.408Z,86.25
2023-04-14T01:15:58.009Z,86.36
2023-04-14T01:18:35.880Z,86.25
2023-04-14T01:21:06.983Z,86.14
2023-04-14T01:23:36.962Z,86.11
2023-04-14T01:26:19.404Z,86.15
2023-04-14T01:29:03.113Z,86.29
2023-04-14T01:31:35.629Z,86.23
2023-04-14T01:34:06.976Z,86.50
2023-04-14T01:36:40.010Z,86.51
2023-04-14T01:39:08.883Z,86.76
2023-04-14T01:41:38.870Z,86.93
2023-04-14T01:44:06.989Z,87.07
2023-04-14T01:46:35.397Z,87.28
2023-04-14T01:49:03.689Z,87.05
2023-04-14T01:51:33.478Z,87.00
2023-04-14T01:54:01.623Z,86.88
2023-04-14T01:56:29.880Z,86.80
2023-04-14T01:58:58.077Z,86.53
2023-04-14T02:01:26.698Z,86.29
2023-04-14T02:03:58.500Z,86.62
2023-04-14T02:06:27.702Z,86.74
2023-04-14T02:08:56.017Z,86.71
2023-04-14T02:11:24.005Z,86.30
2023-04-14T02:13:52.012Z,86.29
2023-04-14T02:16:19.995Z,86.48
2023-04-14T02:18:48.010Z,86.37
2023-04-14T02:21:18.722Z,86.54
2023-04-14T02:23:47.985Z,86.80
2023-04-14T02:26:22.498Z,86.60
2023-04-14T02:29:07.426Z,86.87
2023-04-14T02:31:36.965Z,87.18
2023-04-14T02:34:05.912Z,86.94
2023-04-14T02:36:46.420Z,86.85
2023-04-14T02:39:20.934Z,87.03
2023-04-14T02:41:56.996Z,87.32
2023-04-14T02:44:29.441Z,87.52
2023-04-14T02:47:04.103Z,87.90
2023-04-14T02:49:34.703Z,87.77
2023-04-14T02:52:05.944Z,88.45
2023-04-14T02:54:35.262Z,88.71
2023-04-14T02:57:04.166Z,88.98
2023-04-14T02:59:37.661Z,89.09
2023-04-14T03:02:07.205Z,89.28
2023-04-14T03:04:38.386Z,89.77
2023-04-14T03:07:09.239Z,89.73
2023-04-14T03:09:38.126Z,89.64
2023-04-14T03:12:12.833Z,89.80
2023-04-14T03:14:43.043Z,89.70
2023-04-14T03:17:14.849Z,90.10
2023-04-14T03:19:49.143Z,90.24
2023-04-14T03:22:18.460Z,90.31
2023-04-14T03:24:46.433Z,90.29
2023-04-14T03:27:18.501Z,90.39
2023-04-14T03:29:47.972Z,90.73
2023-04-14T03:32:16.594Z,90.93
2023-04-14T03:34:47.196Z,91.18
2023-04-14T03:37:18.352Z,91.38
2023-04-14T03:39:47.652Z,91.42
2023-04-14T03:42:16.755Z,91.62
2023-04-14T03:44:50.043Z,91.66
2023-04-14T03:47:19.325Z,91.83
2023-04-14T03:49:48.822Z,91.89
2023-04-14T03:52:17.009Z,91.87
2023-04-14T03:54:45.541Z,92.12
2023-04-14T03:57:14.045Z,92.53
2023-04-14T03:59:42.708Z,92.47
2023-04-14T04:02:12.420Z,92.76
2023-04-14T04:04:40.990Z,92.68
2023-04-14T04:07:10.640Z,92.97
2023-04-14T04:09:39.430Z,93.25
2023-04-14T04:12:07.948Z,93.35
2023-04-14T04:14:42.046Z,93.52
2023-04-14T04:17:12.940Z,93.39
2023-04-14T04:19:41.038Z,93.83
2023-04-14T04:22:14.804Z,93.58
2023-04-14T04:24:43.067Z,93.99
2023-04-14T04:27:26.515Z,94.23
2023-04-14T04:29:56.487Z,94.24
2023-04-14T04:32:25.295Z,94.49
2023-04-14T04:34:53.393Z,94.45
2023-04-14T04:37:21.570Z,94.60
2023-04-14T04:39:49.635Z,94.83
2023-04-14T04:42:17.867Z,94.78
2023-04-14T04:44:46.200Z,94.25
2023-04-14T04:47:14.388Z,94.26
2023-04-14T04:49:42.577Z,94.27
2023-04-14T04:52:10.694Z,94.44
2023-04-14T04:54:38.734Z,94.39
2023-04-14T04:57:07.674Z,94.42
2023-04-14T04:59:37.385Z,94.14
2023-04-14T05:02:09.325Z,93.79
2023-04-14T05:04:37.883Z,94.04
2023-04-14T05:07:06.309Z,94.10
2023-04-14T05:09:36.309Z,93.99
2023-04-14T05:12:06.958Z,93.87
2023-04-14T05:14:35.880Z,93.94
2023-04-14T05:17:08.975Z,93.60
2023-04-14T05:19:39.049Z,93.84
2023-04-14T05:22:07.979Z,93.62
2023-04-14T05:24:36.627Z,94.02
2023-04-14T05:27:14.364Z,94.14
2023-04-14T05:29:43.539Z,93.97
2023-04-14T05:32:13.131Z,94.01
2023-04-14T05:34:41.863Z,93.96
2023-04-14T05:37:11.033Z,94.01
2023-04-14T05:39:39.412Z,93.93
2023-04-14T05:42:07.651Z,93.52
2023-04-14T05:44:38.966Z,93.65
2023-04-14T05:47:07.088Z,93.50
2023-04-14T05:49:36.505Z,93.08
2023-04-14T05:52:05.016Z,92.67
2023-04-14T05:54:38.312Z,92.35
2023-04-14T05:57:06.375Z,92.52
2023-04-14T05:59:34.340Z,92.76
2023-04-14T06:02:06.765Z,92.77
2023-04-14T06:04:36.068Z,92.50
2023-04-14T06:07:04.403Z,91.77
2023-04-14T06:09:34.620Z,91.93
2023-04-14T06:12:09.474Z,91.93
2023-04-14T06:14:38.576Z,92.02
2023-04-14T06:17:10.048Z,92.02
2023-04-14T06:19:38.357Z,91.96
2023-04-14T06:22:06.466Z,91.96
2023-04-14T06:24:35.425Z,91.70
2023-04-14T06:27:06.794Z,91.74
2023-04-14T06:29:35.531Z,91.70
2023-04-14T06:32:06.048Z,91.76
2023-04-14T06:34:41.344Z,92.30
2023-04-14T06:37:13.228Z,92.31
2023-04-14T06:39:41.582Z,92.33
2023-04-14T06:42:13.452Z,92.96
2023-04-14T06:44:44.667Z,93.12
2023-04-14T06:47:18.578Z,93.13
2023-04-14T06:49:54.240Z,92.87
2023-04-14T06:52:31.017Z,92.87
2023-04-14T06:55:03.242Z,93.24
2023-04-14T06:57:36.726Z,93.20
2023-04-14T07:00:11.506Z,93.07
2023-04-14T07:03:06.099Z,92.98
2023-04-14T07:05:39.088Z,93.35
2023-04-14T07:08:13.968Z,93.38
2023-04-14T07:10:43.923Z,93.08
2023-04-14T07:13:15.677Z,93.30
2023-04-14T07:15:52.929Z,92.93
2023-04-14T07:18:21.904Z,92.97
2023-04-14T07:20:52.733Z,92.77
2023-04-14T07:23:21.977Z,92.46
2023-04-14T07:25:52.957Z,92.05
2023-04-14T07:28:25.017Z,92.11
2023-04-14T07:30:54.934Z,92.35
2023-04-14T07:33:24.224Z,92.49
2023-04-14T07:36:03.635Z,92.73
2023-04-14T07:38:34.019Z,92.68
2023-04-14T07:41:04.294Z,92.72
2023-04-14T07:43:43.530Z,92.65
2023-04-14T07:46:13.412Z,92.82
2023-04-14T07:48:42.663Z,93.00
2023-04-14T07:51:14.686Z,92.86
2023-04-14T07:53:46.492Z,92.87
2023-04-14T07:56:19.003Z,92.75
2023-04-14T07:58:48.828Z,92.70
2023-04-14T08:01:17.840Z,93.06
2023-04-14T08:03:46.950Z,92.97
2023-04-14T08:06:16.921Z,93.00
2023-04-14T08:08:48.401Z,93.11
2023-04-14T08:11:17.129Z,92.88
2023-04-14T08:13:49.912Z,92.93
2023-04-14T08:16:21.492Z,93.01
2023-04-14T08:18:50.777Z,93.08
2023-04-14T08:21:21.357Z,92.93
2023-04-14T08:23:53.733Z,92.65
2023-04-14T08:26:22.906Z,92.67
2023-04-14T08:28:51.057Z,92.94
2023-04-14T08:31:23.245Z,92.60
2023-04-14T08:33:55.632Z,92.28
2023-04-14T08:36:28.154Z,91.73
2023-04-14T08:38:57.412Z,91.99
2023-04-14T08:41:26.317Z,91.95
2023-04-14T08:43:54.968Z,91.41
2023-04-14T08:46:24.555Z,91.11
2023-04-14T08:48:52.717Z,90.78
2023-04-14T08:51:37.179Z,90.63
2023-04-14T08:54:11.812Z,90.17
2023-04-14T08:56:42.484Z,90.29
2023-04-14T08:59:11.372Z,90.47
2023-04-14T09:01:40.141Z,90.69
2023-04-14T09:04:10.049Z,90.32
2023-04-14T09:06:38.794Z,90.20
2023-04-14T09:09:09.534Z,90.06
2023-04-14T09:11:37.939Z,90.32
2023-04-14T09:14:07.234Z,90.10
2023-04-14T09:16:37.434Z,89.57
2023-04-14T09:19:07.200Z,88.94
2023-04-14T09:21:53.368Z,88.43
2023-04-14T09:24:32.363Z,87.69
2023-04-14T09:27:08.093Z,86.97
2023-04-14T09:29:41.104Z,86.38
2023-04-14T09:32:29.985Z,85.94
2023-04-14T09:35:01.613Z,84.79
2023-04-14T09:37:42.874Z,83.23
2023-04-14T09:40:27.104Z,83.03
2023-04-14T09:42:56.795Z,83.13
2023-04-14T09:45:55.755Z,83.26
2023-04-14T09:48:25.371Z,82.53
2023-04-14T09:51:01.832Z,82.62
2023-04-14T09:53:33.565Z,83.09
2023-04-14T09:56:05.714Z,83.49
2023-04-14T09:58:42.197Z,83.02
2023-04-14T10:01:15.843Z,82.87
2023-04-14T10:03:48.007Z,82.96
2023-04-14T10:06:19.411Z,83.02
2023-04-14T10:08:51.882Z,82.99
2023-04-14T10:11:29.736Z,82.66
2023-04-14T10:14:06.505Z,82.45
2023-04-14T10:16:40.895Z,82.06
2023-04-14T10:19:15.232Z,81.95
2023-04-14T10:21:44.937Z,82.03
2023-04-14T10:24:13.465Z,82.19
2023-04-14T10:26:43.422Z,82.21
2023-04-14T10:29:12.697Z,82.31
2023-04-14T10:31:43.990Z,82.18
2023-04-14T10:34:15.939Z,82.44
2023-04-14T10:36:44.539Z,82.14
2023-04-14T10:39:12.785Z,81.94
2023-04-14T10:41:48.403Z,82.31
2023-04-14T10:44:35.134Z,82.10
2023-04-14T10:47:08.228Z,82.08
2023-04-14T10:49:38.885Z,82.14
2023-04-14T10:52:27.634Z,82.50
2023-04-14T10:55:03.972Z,82.80
2023-04-14T10:57:32.183Z,82.30
2023-04-14T11:00:04.976Z,81.79
2023-04-14T11:02:35.563Z,81.72
2023-04-14T11:05:09.578Z,80.77
2023-04-14T11:07:47.385Z,80.72
2023-04-14T11:10:21.971Z,80.92
2023-04-14T11:13:04.076Z,80.91
2023-04-14T11:15:48.355Z,80.45
2023-04-14T11:18:37.134Z,80.23
2023-04-14T11:21:07.370Z,80.39
2023-04-14T11:23:36.497Z,80.42
2023-04-14T11:26:14.394Z,80.42
2023-04-14T11:28:47.995Z,80.39
2023-04-14T11:31:17.977Z,80.32
2023-04-14T11:33:48.869Z,80.21
2023-04-14T11:36:18.210Z,79.46
2023-04-14T11:38:48.435Z,78.93
2023-04-14T11:41:18.568Z,78.81
2023-04-14T11:43:49.859Z,78.90
2023-04-14T11:46:22.433Z,79.22
2023-04-14T11:48:57.383Z,79.64
2023-04-14T11:51:32.491Z,79.91
2023-04-14T11:54:03.611Z,80.02
2023-04-14T11:56:33.430Z,80.04
2023-04-14T11:59:03.056Z,80.16
2023-04-14T12:01:33.639Z,79.71
2023-04-14T12:04:08.100Z,78.90
2023-04-14T12:06:39.377Z,78.32
2023-04-14T12:09:11.819Z,77.55
2023-04-14T12:11:41.044Z,76.95
2023-04-14T12:14:10.012Z,76.55
2023-04-14T12:16:38.248Z,75.84
2023-04-14T12:19:07.753Z,75.34
2023-04-14T12:21:36.474Z,75.07
2023-04-14T12:24:11.289Z,75.10
2023-04-14T12:27:09.194Z,75.14
2023-04-14T12:29:38.301Z,75.22
2023-04-14T12:32:12.630Z,75.19
2023-04-14T12:34:55.005Z,75.49
2023-04-14T12:37:28.014Z,75.84
2023-04-14T12:39:59.175Z,76.05
2023-04-14T12:42:28.530Z,76.15
2023-04-14T12:44:59.442Z,76.29
2023-04-14T12:47:39.168Z,76.03
2023-04-14T12:50:31.150Z,75.62
2023-04-14T12:53:03.671Z,76.09
2023-04-14T12:55:33.920Z,76.28
2023-04-14T12:58:03.986Z,76.29
2023-04-14T13:00:33.178Z,76.18
2023-04-14T13:03:08.192Z,75.86
2023-04-14T13:05:41.894Z,75.43
2023-04-14T13:08:10.601Z,74.88
2023-04-14T13:10:38.716Z,73.81
2023-04-14T13:13:12.279Z,74.02
2023-04-14T13:16:12.913Z,74.01
2023-04-14T13:18:31.777Z,73.56
2023-04-14T13:21:02.313Z,73.38
2023-04-14T13:23:31.756Z,73.70
2023-04-14T13:26:01.648Z,73.29
2023-04-14T13:28:32.014Z,73.00
2023-04-14T13:31:01.709Z,73.37
2023-04-14T13:33:31.210Z,73.47
2023-04-14T13:35:59.473Z,73.25
2023-04-14T13:38:29.145Z,73.18
2023-04-14T13:40:59.218Z,73.80
2023-04-14T13:43:27.192Z,74.23
2023-04-14T13:45:59.165Z,74.17
2023-04-14T13:48:27.615Z,74.54
2023-04-14T13:50:56.015Z,74.84
2023-04-14T13:53:24.358Z,75.35
2023-04-14T13:55:52.616Z,74.71
2023-04-14T13:58:21.388Z,74.67
2023-04-14T14:00:50.728Z,74.90
2023-04-14T14:03:40.715Z,75.34
2023-04-14T14:06:10.497Z,75.57
2023-04-14T14:08:42.224Z,75.58
2023-04-14T14:11:14.234Z,75.59
2023-04-14T14:13:43.171Z,75.31
2023-04-14T14:16:11.324Z,75.02
2023-04-14T14:18:47.467Z,74.57
2023-04-14T14:21:16.144Z,74.39
2023-04-14T14:23:53.134Z,74.27
2023-04-14T14:26:21.040Z,74.16
2023-04-14T14:28:49.226Z,74.52
2023-04-14T14:31:18.002Z,74.68
2023-04-14T14:33:46.919Z,75.04
2023-04-14T14:36:15.426Z,74.82
2023-04-14T14:38:43.472Z,74.68
2023-04-14T14:41:12.606Z,74.72
2023-04-14T14:43:40.881Z,74.57
2023-04-14T14:46:09.941Z,74.92
2023-04-14T14:48:38.751Z,75.30
2023-04-14T14:51:06.673Z,75.89
2023-04-14T14:53:39.105Z,75.90
2023-04-14T14:56:10.581Z,76.05
2023-04-14T14:58:38.560Z,76.47
2023-04-14T15:01:16.980Z,76.91
2023-04-14T15:03:46.574Z,77.33
2023-04-14T15:06:15.517Z,77.43
2023-04-14T15:08:43.878Z,77.33
2023-04-14T15:11:14.603Z,77.26
2023-04-14T15:13:45.549Z,77.62
2023-04-14T15:16:13.602Z,77.69
2023-04-14T15:18:43.057Z,77.58
2023-04-14T15:21:11.225Z,77.61
2023-04-14T15:23:41.958Z,77.55
2023-04-14T15:26:16.212Z,77.58
2023-04-14T15:28:49.326Z,77.58
2023-04-14T15:31:18.304Z,77.80
2023-04-14T15:33:46.712Z,78.03
2023-04-14T15:36:17.046Z,77.93
2023-04-14T15:38:47.162Z,78.12
2023-04-14T15:41:15.097Z,77.96
2023-04-14T15:43:43.173Z,78.10
2023-04-14T15:46:13.223Z,77.99
2023-04-14T15:48:42.662Z,78.16
2023-04-14T15:51:11.135Z,78.07
2023-04-14T15:53:39.319Z,78.10
2023-04-14T15:56:07.295Z,78.39
2023-04-14T15:58:35.564Z,78.65
2023-04-14T16:01:07.548Z,78.82
2023-04-14T16:03:38.080Z,79.02
2023-04-14T16:06:08.235Z,79.29
2023-04-14T16:08:37.401Z,79.68
2023-04-14T16:11:05.517Z,79.80
2023-04-14T16:13:39.229Z,79.96
2023-04-14T16:16:08.125Z,79.98
2023-04-14T16:18:37.022Z,80.22
2023-04-14T16:21:05.590Z,80.26
2023-04-14T16:23:37.189Z,80.43
2023-04-14T16:26:05.837Z,80.56
2023-04-14T16:28:34.596Z,80.74
2023-04-14T16:31:05.394Z,80.80
2023-04-14T16:33:34.136Z,81.04
2023-04-14T16:36:06.590Z,81.01
2023-04-14T16:38:34.534Z,81.46
2023-04-14T16:41:02.647Z,81.72
2023-04-14T16:43:31.567Z,82.10
2023-04-14T16:46:04.227Z,82.31
2023-04-14T16:48:35.109Z,82.35
2023-04-14T16:51:04.850Z,82.53
2023-04-14T16:53:34.744Z,82.72
2023-04-14T16:56:07.273Z,82.70
2023-04-14T16:58:45.498Z,82.87
2023-04-14T17:01:13.694Z,82.78
2023-04-14T17:03:42.529Z,82.66
2023-04-14T17:06:10.995Z,82.17
2023-04-14T17:08:41.698Z,82.31
2023-04-14T17:11:09.916Z,82.13
2023-04-14T17:13:38.448Z,82.36
2023-04-14T17:16:11.245Z,82.39
2023-04-14T17:18:41.484Z,82.33
2023-04-14T17:21:09.492Z,82.57
2023-04-14T17:23:48.985Z,82.56
2023-04-14T17:26:17.071Z,82.65
2023-04-14T17:28:45.884Z,82.65
2023-04-14T17:31:15.768Z,82.55
2023-04-14T17:33:44.679Z,82.44
2023-04-14T17:36:14.786Z,82.48
2023-04-14T17:38:43.572Z,82.37
2023-04-14T17:41:12.832Z,82.30
2023-04-14T17:43:43.903Z,82.25
2023-04-14T17:46:12.526Z,82.01
2023-04-14T17:48:41.469Z,81.95
2023-04-14T17:51:10.268Z,82.18
2023-04-14T17:53:39.397Z,82.10
2023-04-14T17:56:07.865Z,82.28
2023-04-14T17:58:36.839Z,82.52
2023-04-14T18:01:05.702Z,82.66
2023-04-14T18:03:35.124Z,82.62
2023-04-14T18:06:03.513Z,82.60
2023-04-14T18:08:32.285Z,82.68
2023-04-14T18:11:00.478Z,82.70
2023-04-14T18:13:29.944Z,82.79
2023-04-14T18:15:58.025Z,82.94
2023-04-14T18:18:29.379Z,83.12
2023-04-14T18:20:57.602Z,83.08
2023-04-14T18:23:25.543Z,83.36
2023-04-14T18:28:33.832Z,83.81
2023-04-14T18:31:01.821Z,83.89
2023-04-14T18:33:30.710Z,83.92
2023-04-14T18:36:00.524Z,83.86
2023-04-14T18:38:28.851Z,84.06
2023-04-14T18:41:05.037Z,84.15
2023-04-14T18:43:34.295Z,84.07
2023-04-14T18:46:02.581Z,84.52
2023-04-14T18:48:34.195Z,84.56
2023-04-14T18:51:04.614Z,84.59
2023-04-14T18:53:32.640Z,84.67
2023-04-14T18:56:03.367Z,84.86
2023-04-14T18:58:32.589Z,84.72
2023-04-14T19:01:00.654Z,84.63
2023-04-14T19:03:31.844Z,84.97
2023-04-14T19:06:00.164Z,84.94
2023-04-14T19:08:28.157Z,84.64
2023-04-14T19:10:57.510Z,84.70
2023-04-14T19:13:28.322Z,84.44
2023-04-14T19:16:06.470Z,84.69
2023-04-14T19:18:35.563Z,84.84
2023-04-14T19:21:07.920Z,84.75
2023-04-14T19:23:36.379Z,84.62
2023-04-14T19:26:06.411Z,84.82
2023-04-14T19:28:39.960Z,84.88
2023-04-14T19:31:08.347Z,85.00
2023-04-14T19:33:36.541Z,84.69
2023-04-14T19:36:14.934Z,84.96
2023-04-14T19:38:44.096Z,84.93
2023-04-14T19:41:12.298Z,85.21
2023-04-14T19:43:42.096Z,85.30
2023-04-14T19:46:12.891Z,85.65
2023-04-14T19:48:42.733Z,85.99
2023-04-14T19:51:11.459Z,85.82
2023-04-14T19:53:39.698Z,85.88
2023-04-14T19:56:08.817Z,85.98
2023-04-14T19:58:37.322Z,86.38
2023-04-14T20:01:06.124Z,86.55
2023-04-14T20:03:36.714Z,86.62
2023-04-14T20:06:04.936Z,86.97
2023-04-14T20:08:34.587Z,87.27
2023-04-14T20:11:04.960Z,87.39
2023-04-14T20:13:35.484Z,87.37
2023-04-14T20:16:08.669Z,87.79
2023-04-14T20:18:36.749Z,88.03
2023-04-14T20:21:06.449Z,88.15
2023-04-14T20:23:34.714Z,88.17
2023-04-14T20:26:06.914Z,88.31
2023-04-14T20:28:36.177Z,88.40
2023-04-14T20:31:04.219Z,88.24
2023-04-14T20:33:34.320Z,88.30
2023-04-14T20:36:02.350Z,88.48
2023-04-14T20:38:30.957Z,88.46
2023-04-14T20:41:01.164Z,87.94
2023-04-14T20:43:34.354Z,88.12
2023-04-14T20:46:03.879Z,87.53
2023-04-14T20:48:35.371Z,86.56
2023-04-14T20:51:04.552Z,86.42
2023-04-14T20:53:32.634Z,86.02
2023-04-14T20:56:01.073Z,85.73
2023-04-14T20:58:30.573Z,84.90
2023-04-14T21:00:58.575Z,84.58
2023-04-14T21:03:28.987Z,83.09
2023-04-14T21:05:57.630Z,82.38
2023-04-14T21:08:27.454Z,82.09
2023-04-14T21:11:15.703Z,80.43
2023-04-14T21:15:25.125Z,79.24
2023-04-14T21:16:32.831Z,78.57
2023-04-14T21:19:04.315Z,77.97
2023-04-14T21:21:42.788Z,78.01
2023-04-14T21:24:11.383Z,77.62
2023-04-14T21:26:39.465Z,77.66
2023-04-14T21:29:14.665Z,77.77
2023-04-14T21:31:42.796Z,78.08
2023-04-14T21:34:11.279Z,77.52
2023-04-14T21:36:39.418Z,77.90
2023-04-14T21:39:07.520Z,77.63
2023-04-14T21:41:35.870Z,77.63
2023-04-14T21:44:04.102Z,77.61
2023-04-14T21:46:35.058Z,77.88
2023-04-14T21:49:03.888Z,77.88
2023-04-14T21:51:32.223Z,77.92
2023-04-14T21:54:02.638Z,78.00
2023-04-14T21:56:31.446Z,77.75
2023-04-14T21:58:59.751Z,77.58
2023-04-14T22:01:31.563Z,77.10
2023-04-14T22:04:00.725Z,77.34
2023-04-14T22:06:29.554Z,77.24
2023-04-14T22:09:01.929Z,77.43
2023-04-14T22:11:32.188Z,77.22
2023-04-14T22:14:00.917Z,77.05
2023-04-14T22:16:35.570Z,77.09
2023-04-14T22:19:09.117Z,76.39
2023-04-14T22:21:37.843Z,76.23
2023-04-14T22:24:06.287Z,76.44
2023-04-14T22:26:34.375Z,76.00
2023-04-14T22:29:02.719Z,75.50
2023-04-14T22:31:31.260Z,75.57
2023-04-14T22:33:59.416Z,75.63
2023-04-14T22:36:28.588Z,75.13
2023-04-14T22:38:57.092Z,74.27
2023-04-14T22:41:25.023Z,74.16
2023-04-14T22:43:53.462Z,73.65
2023-04-14T22:46:24.382Z,73.65
2023-04-14T22:48:52.690Z,73.75
2023-04-14T22:51:20.744Z,73.74
2023-04-14T22:53:49.373Z,73.89
2023-04-14T22:56:18.016Z,74.00
2023-04-14T22:58:45.903Z,74.38
2023-04-14T23:01:21.929Z,74.41
2023-04-14T23:03:54.829Z,74.95
2023-04-14T23:06:23.087Z,75.05
2023-04-14T23:08:51.378Z,75.10
2023-04-14T23:11:20.928Z,75.13
2023-04-14T23:13:49.642Z,75.34
2023-04-14T23:16:20.013Z,75.58
2023-04-14T23:18:52.904Z,75.53
2023-04-14T23:21:24.873Z,76.05
2023-04-14T23:23:52.938Z,76.29
2023-04-14T23:26:27.194Z,76.88
2023-04-14T23:28:56.942Z,77.25
2023-04-14T23:31:25.061Z,77.66
2023-04-14T23:33:53.082Z,77.89
2023-04-14T23:36:21.712Z,78.24
2023-04-14T23:38:49.619Z,78.50
2023-04-14T23:41:21.965Z,78.57
2023-04-14T23:43:51.636Z,78.85
2023-04-14T23:46:19.706Z,78.97
2023-04-14T23:48:53.503Z,79.31
2023-04-14T23:51:22.876Z,79.05
2023-04-14T23:53:51.787Z,79.08
2023-04-14T23:56:24.112Z,79.11
2023-04-14T23:58:52.194Z,79.56
